createdAt,value
2018-05-23T00:00:07.359Z,15.40
2018-05-23T00:02:35.624Z,15.40
2018-05-23T00:05:03.948Z,15.40
2018-05-23T00:07:31.476Z,15.30
2018-05-23T00:09:59.761Z,15.20
2018-05-23T00:12:28.023Z,15.20
2018-05-23T00:14:56.263Z,15.10
2018-05-23T00:17:23.750Z,15.00
2018-05-23T00:19:51.992Z,15.00
2018-05-23T00:22:19.480Z,14.90
2018-05-23T00:24:46.960Z,15.00
2018-05-23T00:27:15.224Z,15.00
2018-05-23T00:29:42.778Z,15.00
2018-05-23T00:32:11.783Z,14.90
2018-05-23T00:34:40.072Z,15.00
2018-05-23T00:37:08.379Z,15.00
2018-05-23T00:39:35.842Z,14.90
2018-05-23T00:42:03.331Z,15.10
2018-05-23T00:44:30.856Z,15.00
2018-05-23T00:46:58.353Z,15.00
2018-05-23T00:49:25.875Z,15.00
2018-05-23T00:51:53.349Z,14.90
2018-05-23T00:54:20.836Z,14.90
2018-05-23T00:56:48.317Z,14.90
2018-05-23T00:59:16.543Z,14.70
2018-05-23T01:01:44.063Z,14.70
2018-05-23T01:04:11.553Z,14.70
2018-05-23T01:06:39.042Z,14.70
2018-05-23T01:09:06.576Z,14.70
2018-05-23T01:11:34.043Z,14.60
2018-05-23T01:14:01.544Z,14.60
2018-05-23T01:16:29.829Z,14.50
2018-05-23T01:18:58.097Z,14.40
2018-05-23T01:21:25.583Z,14.40
2018-05-23T01:23:53.839Z,14.30
2018-05-23T01:26:22.124Z,14.30
2018-05-23T01:28:50.394Z,14.10
2018-05-23T01:31:18.683Z,14.10
2018-05-23T01:33:46.191Z,14.00
2018-05-23T01:36:13.666Z,14.10
2018-05-23T01:38:41.157Z,14.00
2018-05-23T01:41:09.440Z,13.90
2018-05-23T01:43:37.693Z,13.80
2018-05-23T01:46:06.704Z,13.80
2018-05-23T01:51:39.475Z,13.90
2018-05-23T01:54:07.075Z,13.80
2018-05-23T01:56:35.313Z,13.80
2018-05-23T01:59:02.907Z,13.70
2018-05-23T02:01:31.146Z,13.70
2018-05-23T02:03:58.655Z,13.60
2018-05-23T02:06:26.933Z,13.70
2018-05-23T02:08:55.207Z,13.70
2018-05-23T02:11:23.453Z,13.70
2018-05-23T02:13:50.939Z,13.60
2018-05-23T02:16:19.182Z,13.50
2018-05-23T02:18:46.711Z,13.50
2018-05-23T02:21:14.252Z,13.50
2018-05-23T02:23:41.768Z,13.50
2018-05-23T02:26:09.357Z,13.40
2018-05-23T02:28:37.671Z,13.40
2018-05-23T02:31:05.161Z,13.30
2018-05-23T02:33:32.661Z,13.30
2018-05-23T02:36:00.920Z,13.30
2018-05-23T02:38:28.432Z,13.30
2018-05-23T02:40:55.931Z,13.30
2018-05-23T02:43:23.512Z,13.30
2018-05-23T02:45:51.761Z,13.30
2018-05-23T02:48:19.268Z,13.20
2018-05-23T02:50:47.526Z,13.30
2018-05-23T02:53:15.795Z,13.30
2018-05-23T02:55:43.294Z,13.30
2018-05-23T02:58:10.760Z,13.30
2018-05-23T03:00:38.291Z,13.30
2018-05-23T03:03:06.709Z,13.20
2018-05-23T03:05:34.803Z,13.30
2018-05-23T03:08:02.276Z,13.30
2018-05-23T03:10:30.596Z,13.20
2018-05-23T03:12:58.064Z,13.20
2018-05-23T03:15:25.555Z,13.20
2018-05-23T03:17:53.064Z,13.20
2018-05-23T03:20:21.319Z,13.10
2018-05-23T03:22:48.879Z,13.00
2018-05-23T03:25:16.444Z,13.00
2018-05-23T03:27:44.699Z,13.10
2018-05-23T03:30:12.290Z,13.10
2018-05-23T03:32:40.574Z,13.00
2018-05-23T03:35:08.875Z,13.00
2018-05-23T03:37:37.092Z,13.00
2018-05-23T03:40:04.576Z,13.00
2018-05-23T03:42:32.131Z,13.00
2018-05-23T03:44:59.633Z,13.00
2018-05-23T03:47:27.157Z,13.10
2018-05-23T03:49:54.655Z,13.10
2018-05-23T03:52:22.195Z,13.10
2018-05-23T03:54:50.442Z,13.10
2018-05-23T03:57:18.702Z,13.10
2018-05-23T03:59:58.228Z,13.00
2018-05-23T04:02:38.027Z,13.10
2018-05-23T04:05:18.055Z,13.10
2018-05-23T04:07:47.074Z,13.10
2018-05-23T04:10:14.550Z,13.10
2018-05-23T04:12:42.039Z,13.20
2018-05-23T04:15:09.525Z,13.20
2018-05-23T04:17:37.061Z,13.20
2018-05-23T04:20:04.544Z,13.20
2018-05-23T04:22:32.027Z,13.30
2018-05-23T04:25:00.360Z,13.50
2018-05-23T04:27:27.767Z,13.40
2018-05-23T04:29:56.013Z,13.50
2018-05-23T04:32:23.501Z,13.50
2018-05-23T04:34:50.967Z,13.60
2018-05-23T04:37:19.263Z,13.70
2018-05-23T04:39:48.326Z,13.80
2018-05-23T04:42:15.819Z,13.70
2018-05-23T04:44:43.287Z,13.90
2018-05-23T04:47:10.778Z,13.90
2018-05-23T04:49:38.279Z,14.00
2018-05-23T04:52:06.546Z,13.90
2018-05-23T04:54:34.041Z,13.90
2018-05-23T04:57:01.579Z,14.00
2018-05-23T04:59:29.816Z,14.20
2018-05-23T05:01:57.303Z,14.20
2018-05-23T05:04:24.870Z,14.30
2018-05-23T05:06:53.121Z,14.50
2018-05-23T05:09:20.957Z,14.40
2018-05-23T05:11:48.455Z,14.60
2018-05-23T05:14:15.968Z,14.70
2018-05-23T05:16:43.466Z,14.70
2018-05-23T05:19:11.055Z,14.80
2018-05-23T05:21:39.300Z,15.00
2018-05-23T05:24:06.836Z,15.00
2018-05-23T05:26:34.303Z,15.20
2018-05-23T05:29:01.799Z,15.40
2018-05-23T05:31:29.341Z,15.50
2018-05-23T05:33:56.839Z,15.60
2018-05-23T05:36:25.165Z,15.80
2018-05-23T05:38:52.700Z,15.70
2018-05-23T05:41:21.107Z,16.10
2018-05-23T05:43:48.600Z,16.00
2018-05-23T05:46:16.077Z,16.10
2018-05-23T05:48:44.394Z,16.40
2018-05-23T05:51:11.884Z,16.30
2018-05-23T05:53:39.471Z,16.60
2018-05-23T05:56:07.663Z,17.30
2018-05-23T05:58:36.026Z,17.50
2018-05-23T06:01:04.267Z,17.60
2018-05-23T06:03:31.864Z,17.60
2018-05-23T06:06:00.148Z,17.80
2018-05-23T06:08:28.428Z,17.80
2018-05-23T06:10:56.665Z,17.80
2018-05-23T06:13:24.311Z,17.80
2018-05-23T06:15:51.925Z,17.90
2018-05-23T06:18:20.310Z,18.20
2018-05-23T06:20:48.593Z,18.30
2018-05-23T06:23:16.845Z,18.20
2018-05-23T06:25:45.850Z,18.30
2018-05-23T06:28:14.132Z,18.50
2018-05-23T06:30:42.407Z,18.60
2018-05-23T06:33:10.651Z,18.60
2018-05-23T06:35:38.131Z,18.50
2018-05-23T06:38:05.599Z,18.60
2018-05-23T06:40:33.092Z,18.70
2018-05-23T06:43:00.695Z,18.90
2018-05-23T06:45:28.188Z,19.00
2018-05-23T06:47:56.447Z,19.10
2018-05-23T06:50:23.951Z,19.00
2018-05-23T06:52:51.484Z,19.10
2018-05-23T06:55:19.759Z,19.30
2018-05-23T06:57:48.071Z,19.40
2018-05-23T07:00:15.556Z,19.40
2018-05-23T07:02:43.040Z,19.60
2018-05-23T07:05:10.634Z,19.70
2018-05-23T07:07:38.941Z,19.90
2018-05-23T07:10:06.423Z,19.90
2018-05-23T07:12:34.688Z,19.90
2018-05-23T07:15:02.249Z,20.10
2018-05-23T07:17:29.746Z,20.20
2018-05-23T07:19:58.011Z,20.40
2018-05-23T07:22:25.512Z,20.30
2018-05-23T07:24:53.784Z,20.80
2018-05-23T07:27:21.278Z,20.70
2018-05-23T07:29:48.788Z,20.90
2018-05-23T07:32:17.044Z,22.90
2018-05-23T07:34:44.553Z,21.00
2018-05-23T07:37:12.087Z,21.20
2018-05-23T07:39:40.331Z,21.40
2018-05-23T07:42:07.826Z,21.30
2018-05-23T07:44:36.111Z,21.60
2018-05-23T07:47:04.399Z,21.80
2018-05-23T07:49:31.885Z,21.80
2018-05-23T07:52:00.144Z,22.70
2018-05-23T07:54:27.635Z,22.60
2018-05-23T07:56:55.227Z,23.20
2018-05-23T07:59:22.787Z,23.50
2018-05-23T08:01:50.347Z,23.80
2018-05-23T08:04:17.831Z,23.60
2018-05-23T08:06:45.339Z,23.50
2018-05-23T08:09:12.818Z,23.30
2018-05-23T08:11:41.070Z,22.80
2018-05-23T08:14:08.561Z,22.80
2018-05-23T08:16:36.076Z,22.50
2018-05-23T08:19:03.591Z,22.30
2018-05-23T08:21:31.888Z,22.10
2018-05-23T08:23:59.438Z,22.10
2018-05-23T08:26:27.710Z,21.90
2018-05-23T08:28:55.955Z,22.00
2018-05-23T08:31:23.540Z,21.90
2018-05-23T08:33:51.015Z,22.00
2018-05-23T08:36:19.302Z,22.30
2018-05-23T08:38:47.524Z,22.40
2018-05-23T08:41:15.023Z,22.40
2018-05-23T08:43:43.280Z,22.50
2018-05-23T08:46:10.837Z,22.50
2018-05-23T08:48:38.275Z,22.40
2018-05-23T08:51:05.953Z,22.40
2018-05-23T08:53:33.432Z,22.40
2018-05-23T08:56:00.997Z,22.40
2018-05-23T08:58:28.522Z,22.40
2018-05-23T09:00:55.996Z,22.50
2018-05-23T09:03:24.256Z,22.70
2018-05-23T09:05:51.927Z,22.70
2018-05-23T09:08:19.407Z,22.80
2018-05-23T09:10:46.986Z,22.80
2018-05-23T09:13:15.244Z,22.80
2018-05-23T09:15:44.243Z,22.80
2018-05-23T09:18:11.732Z,22.80
2018-05-23T09:20:39.272Z,22.90
2018-05-23T09:23:07.534Z,22.90
2018-05-23T09:25:35.031Z,22.90
2018-05-23T09:28:02.535Z,23.00
2018-05-23T09:30:30.024Z,23.10
2018-05-23T09:32:57.516Z,23.20
2018-05-23T09:35:24.998Z,23.40
2018-05-23T09:37:52.511Z,23.40
2018-05-23T09:40:20.761Z,23.50
2018-05-23T09:42:48.261Z,23.50
2018-05-23T09:45:15.779Z,23.60
2018-05-23T09:47:43.254Z,23.70
2018-05-23T09:50:10.728Z,23.60
2018-05-23T09:52:38.990Z,23.80
2018-05-23T09:55:06.637Z,23.80
2018-05-23T09:57:34.081Z,23.80
2018-05-23T10:00:01.564Z,23.90
2018-05-23T10:02:29.062Z,23.90
2018-05-23T10:04:56.535Z,23.80
2018-05-23T10:07:24.059Z,23.80
2018-05-23T10:09:52.331Z,23.80
2018-05-23T10:12:20.581Z,23.90
2018-05-23T10:14:48.163Z,23.80
2018-05-23T10:17:15.730Z,24.00
2018-05-23T10:19:43.214Z,24.10
2018-05-23T10:22:10.694Z,24.20
2018-05-23T10:24:38.174Z,24.20
2018-05-23T10:27:05.648Z,24.30
2018-05-23T10:29:33.280Z,24.30
2018-05-23T10:32:00.749Z,24.40
2018-05-23T10:34:28.239Z,24.20
2018-05-23T10:36:56.481Z,24.20
2018-05-23T10:39:23.968Z,24.20
2018-05-23T10:41:51.435Z,24.20
2018-05-23T10:44:18.919Z,24.00
2018-05-23T10:46:47.220Z,24.10
2018-05-23T10:49:14.638Z,24.10
2018-05-23T10:51:42.131Z,24.10
2018-05-23T10:54:09.626Z,24.20
2018-05-23T10:56:37.117Z,24.30
2018-05-23T10:59:04.677Z,24.40
2018-05-23T11:01:32.139Z,24.40
2018-05-23T11:04:00.396Z,24.50
2018-05-23T11:06:27.877Z,24.40
2018-05-23T11:08:56.155Z,24.60
2018-05-23T11:11:24.399Z,24.60
2018-05-23T11:13:51.982Z,24.50
2018-05-23T11:16:19.470Z,24.60
2018-05-23T11:18:47.024Z,24.70
2018-05-23T11:21:15.280Z,24.70
2018-05-23T11:23:42.759Z,24.60
2018-05-23T11:26:11.010Z,24.70
2018-05-23T11:28:38.475Z,24.60
2018-05-23T11:31:06.077Z,24.80
2018-05-23T11:33:33.614Z,24.90
2018-05-23T11:41:43.528Z,25.10
2018-05-23T11:44:11.035Z,25.10
2018-05-23T11:46:38.598Z,25.20
2018-05-23T11:49:06.760Z,25.30
2018-05-23T11:51:34.246Z,25.20
2018-05-23T11:54:02.486Z,25.10
2018-05-23T11:56:48.207Z,25.00
2018-05-23T11:59:15.668Z,25.00
2018-05-23T12:01:43.156Z,25.10
2018-05-23T12:04:11.408Z,25.30
2018-05-23T12:06:39.669Z,25.40
2018-05-23T12:09:07.249Z,25.30
2018-05-23T12:11:35.523Z,25.40
2018-05-23T12:14:03.000Z,25.30
2018-05-23T12:16:31.257Z,25.20
2018-05-23T12:18:58.818Z,25.10
2018-05-23T12:21:26.306Z,25.20
2018-05-23T12:29:36.897Z,25.40
2018-05-23T12:32:05.135Z,25.60
2018-05-23T12:34:32.648Z,25.50
2018-05-23T12:37:00.139Z,25.60
2018-05-23T12:39:27.631Z,25.70
2018-05-23T12:41:55.125Z,25.70
2018-05-23T12:44:22.614Z,25.50
2018-05-23T12:46:50.109Z,25.40
2018-05-23T12:49:18.363Z,25.50
2018-05-23T12:51:45.850Z,25.50
2018-05-23T12:54:13.368Z,25.50
2018-05-23T12:56:40.853Z,25.50
2018-05-23T12:59:08.328Z,25.60
2018-05-23T13:01:35.804Z,25.60
2018-05-23T13:04:04.070Z,25.60
2018-05-23T13:06:31.575Z,25.50
2018-05-23T13:08:59.048Z,25.50
2018-05-23T13:11:26.526Z,25.50
2018-05-23T13:13:54.041Z,25.40
2018-05-23T13:16:21.522Z,25.40
2018-05-23T13:18:49.017Z,25.50
2018-05-23T13:21:16.635Z,25.40
2018-05-23T13:23:44.874Z,25.50
2018-05-23T13:26:13.135Z,25.40
2018-05-23T13:28:40.614Z,25.40
2018-05-23T13:31:08.866Z,25.20
2018-05-23T13:33:36.349Z,25.10
2018-05-23T13:36:04.602Z,25.20
2018-05-23T13:38:32.090Z,25.20
2018-05-23T13:41:00.911Z,25.20
2018-05-23T13:43:28.414Z,25.20
2018-05-23T13:45:55.898Z,25.30
2018-05-23T13:48:24.157Z,25.30
2018-05-23T13:50:51.718Z,25.20
2018-05-23T13:53:19.971Z,25.30
2018-05-23T13:55:47.455Z,25.20
2018-05-23T13:58:14.954Z,25.30
2018-05-23T14:00:42.423Z,25.30
2018-05-23T14:03:09.985Z,25.30
2018-05-23T14:05:37.442Z,25.40
2018-05-23T14:08:04.999Z,25.40
2018-05-23T14:10:32.519Z,25.40
2018-05-23T14:13:00.798Z,25.50
2018-05-23T14:15:28.372Z,25.40
2018-05-23T14:17:56.633Z,25.40
2018-05-23T14:20:24.111Z,25.30
2018-05-23T14:22:52.385Z,25.40
2018-05-23T14:25:20.642Z,25.40
2018-05-23T14:27:48.140Z,25.40
2018-05-23T14:30:15.677Z,25.30
2018-05-23T14:32:43.933Z,25.30
2018-05-23T14:35:11.416Z,25.30
2018-05-23T14:37:39.665Z,25.10
2018-05-23T14:40:07.168Z,25.10
2018-05-23T14:42:34.707Z,25.10
2018-05-23T14:45:02.988Z,25.20
2018-05-23T14:47:31.232Z,25.20
2018-05-23T14:49:58.732Z,25.10
2018-05-23T14:52:26.998Z,25.20
2018-05-23T14:54:55.250Z,25.30
2018-05-23T14:57:22.753Z,25.20
2018-05-23T14:59:51.029Z,25.20
2018-05-23T15:02:19.327Z,25.20
2018-05-23T15:04:46.762Z,25.20
2018-05-23T15:07:15.017Z,25.10
2018-05-23T15:09:42.508Z,25.10
2018-05-23T15:12:11.130Z,25.20
2018-05-23T15:14:38.644Z,25.10
2018-05-23T15:17:06.907Z,25.10
2018-05-23T15:19:34.390Z,25.10
2018-05-23T15:22:02.640Z,24.90
2018-05-23T15:24:30.900Z,24.90
2018-05-23T15:26:58.419Z,24.80
2018-05-23T15:29:26.029Z,24.90
2018-05-23T15:31:53.556Z,24.90
2018-05-23T15:34:21.055Z,24.80
2018-05-23T15:36:48.557Z,24.70
2018-05-23T15:39:16.040Z,24.70
2018-05-23T15:41:43.564Z,24.70
2018-05-23T15:44:11.032Z,24.70
2018-05-23T15:46:38.507Z,24.70
2018-05-23T15:49:06.030Z,24.70
2018-05-23T15:51:34.309Z,24.50
2018-05-23T15:54:02.633Z,24.40
2018-05-23T15:56:30.110Z,24.30
2018-05-23T15:58:57.620Z,24.30
2018-05-23T16:01:25.153Z,24.20
2018-05-23T16:03:52.635Z,24.20
2018-05-23T16:06:20.870Z,24.20
2018-05-23T16:08:48.345Z,24.10
2018-05-23T16:11:16.621Z,24.30
2018-05-23T16:13:44.111Z,24.20
2018-05-23T16:16:12.358Z,24.30
2018-05-23T16:18:39.846Z,24.20
2018-05-23T16:21:07.326Z,24.30
2018-05-23T16:23:34.810Z,24.20
2018-05-23T16:26:02.303Z,24.20
2018-05-23T16:28:29.788Z,24.20
2018-05-23T16:30:57.345Z,24.10
2018-05-23T16:33:25.600Z,24.00
2018-05-23T16:35:53.859Z,23.90
2018-05-23T16:38:21.350Z,23.90
2018-05-23T16:40:49.625Z,23.90
2018-05-23T16:43:17.886Z,23.80
2018-05-23T16:45:46.132Z,23.70
2018-05-23T16:48:13.651Z,23.70
2018-05-23T16:50:41.931Z,23.60
2018-05-23T16:53:09.394Z,23.50
2018-05-23T16:55:36.928Z,23.50
2018-05-23T16:58:05.184Z,23.40
2018-05-23T17:00:32.666Z,23.30
2018-05-23T17:03:00.218Z,23.40
2018-05-23T17:05:27.765Z,23.30
2018-05-23T17:07:56.057Z,23.30
2018-05-23T17:10:23.542Z,23.20
2018-05-23T17:12:51.789Z,23.20
2018-05-23T17:15:19.275Z,23.10
2018-05-23T17:17:46.756Z,23.10
2018-05-23T17:20:14.244Z,23.10
2018-05-23T17:22:41.718Z,23.00
2018-05-23T17:25:09.295Z,23.00
2018-05-23T17:27:36.777Z,22.90
2018-05-23T17:30:05.030Z,22.90
2018-05-23T17:32:32.519Z,22.80
2018-05-23T17:34:59.989Z,22.80
2018-05-23T17:37:27.463Z,22.80
2018-05-23T17:39:54.956Z,22.80
2018-05-23T17:42:22.456Z,22.80
2018-05-23T17:44:49.950Z,22.80
2018-05-23T17:47:17.547Z,22.70
2018-05-23T17:49:45.119Z,22.70
2018-05-23T17:52:13.369Z,22.50
2018-05-23T17:54:41.619Z,22.40
2018-05-23T17:57:09.872Z,22.40
2018-05-23T17:59:37.357Z,22.40
2018-05-23T18:02:04.839Z,22.40
2018-05-23T18:04:32.336Z,22.30
2018-05-23T18:07:00.583Z,22.30
2018-05-23T18:09:28.062Z,22.20
2018-05-23T18:11:56.327Z,22.10
2018-05-23T18:14:25.301Z,22.00
2018-05-23T18:16:52.827Z,22.00
2018-05-23T18:19:21.052Z,22.00
2018-05-23T18:21:48.543Z,21.90
2018-05-23T18:24:16.003Z,21.90
2018-05-23T18:26:43.550Z,21.80
2018-05-23T18:29:11.781Z,21.70
2018-05-23T18:31:39.290Z,21.70
2018-05-23T18:34:07.570Z,21.60
2018-05-23T18:36:35.923Z,21.60
2018-05-23T18:39:03.402Z,21.60
2018-05-23T18:41:31.664Z,21.60
2018-05-23T18:43:59.233Z,21.50
2018-05-23T18:46:26.791Z,21.50
2018-05-23T18:48:55.063Z,21.40
2018-05-23T18:51:22.557Z,21.40
2018-05-23T18:53:50.825Z,21.40
2018-05-23T18:56:19.088Z,21.30
2018-05-23T18:58:47.348Z,21.30
2018-05-23T19:01:14.933Z,21.30
2018-05-23T19:03:43.209Z,21.20
2018-05-23T19:06:11.457Z,21.20
2018-05-23T19:08:39.044Z,21.10
2018-05-23T19:11:06.612Z,21.10
2018-05-23T19:13:34.910Z,21.00
2018-05-23T19:16:02.388Z,20.90
2018-05-23T19:18:29.886Z,20.90
2018-05-23T19:20:57.369Z,20.90
2018-05-23T19:23:25.626Z,20.70
2018-05-23T19:25:53.101Z,20.70
2018-05-23T19:28:20.613Z,20.60
2018-05-23T19:30:48.197Z,20.60
2018-05-23T19:33:15.774Z,20.50
2018-05-23T19:35:43.333Z,20.40
2018-05-23T19:38:10.895Z,20.40
2018-05-23T19:40:39.213Z,20.20
2018-05-23T19:43:07.052Z,20.20
2018-05-23T19:45:34.582Z,20.20
2018-05-23T19:48:02.066Z,20.10
2018-05-23T19:50:30.315Z,20.00
2018-05-23T19:52:57.976Z,19.90
2018-05-23T19:55:25.403Z,19.90
2018-05-23T19:57:52.937Z,19.90
2018-05-23T20:00:21.321Z,19.80
2018-05-23T20:02:49.573Z,19.70
2018-05-23T20:05:17.068Z,19.70
2018-05-23T20:07:45.347Z,19.60
2018-05-23T20:10:12.844Z,19.50
2018-05-23T20:12:40.349Z,19.50
2018-05-23T20:15:08.619Z,19.40
2018-05-23T20:17:36.157Z,19.40
2018-05-23T20:20:03.752Z,19.40
2018-05-23T20:22:32.009Z,19.20
2018-05-23T20:24:59.586Z,19.10
2018-05-23T20:27:27.007Z,19.20
2018-05-23T20:29:54.486Z,19.10
2018-05-23T20:32:21.977Z,19.10
2018-05-23T20:34:49.480Z,19.00
2018-05-23T20:37:16.950Z,18.90
2018-05-23T20:39:44.452Z,18.90
2018-05-23T20:42:12.714Z,18.70
2018-05-23T20:44:41.010Z,18.60
2018-05-23T20:47:09.275Z,18.60
2018-05-23T20:49:37.530Z,18.60
2018-05-23T20:52:05.014Z,18.50
2018-05-23T20:54:33.291Z,18.40
2018-05-23T20:57:01.543Z,18.40
2018-05-23T20:59:29.127Z,18.40
2018-05-23T21:01:57.378Z,18.40
2018-05-23T21:04:24.896Z,18.30
2018-05-23T21:06:52.423Z,18.40
2018-05-23T21:09:20.667Z,18.30
2018-05-23T21:11:48.167Z,18.20
2018-05-23T21:14:16.439Z,18.20
2018-05-23T21:16:44.721Z,18.10
2018-05-23T21:19:12.951Z,18.00
2018-05-23T21:21:40.430Z,18.00
2018-05-23T21:24:07.907Z,18.00
2018-05-23T21:26:36.154Z,17.90
2018-05-23T21:29:03.645Z,17.90
2018-05-23T21:34:05.751Z,17.80
2018-05-23T21:36:33.239Z,17.80
2018-05-23T21:39:00.781Z,17.80
2018-05-23T21:41:28.271Z,17.60
2018-05-23T21:43:55.738Z,17.60
2018-05-23T21:46:23.326Z,17.50
2018-05-23T21:48:51.613Z,17.50
2018-05-23T21:51:19.864Z,17.50
2018-05-23T21:53:47.337Z,17.50
2018-05-23T21:56:14.835Z,17.60
2018-05-23T21:58:42.317Z,17.40
2018-05-23T22:01:13.616Z,17.50
2018-05-23T22:03:41.862Z,17.40
2018-05-23T22:06:09.347Z,17.40
2018-05-23T22:08:36.915Z,17.40
2018-05-23T22:11:05.174Z,17.30
2018-05-23T22:13:32.659Z,17.30
2018-05-23T22:16:00.926Z,17.20
2018-05-23T22:18:29.225Z,17.20
2018-05-23T22:20:56.766Z,17.10
2018-05-23T22:23:25.008Z,17.20
2018-05-23T22:25:52.487Z,17.10
2018-05-23T22:28:19.976Z,17.20
2018-05-23T22:30:48.225Z,17.00
2018-05-23T22:33:15.702Z,17.00
2018-05-23T22:35:43.958Z,17.10
2018-05-23T22:38:11.438Z,17.00
2018-05-23T22:40:39.680Z,17.00
2018-05-23T22:43:07.165Z,17.00
2018-05-23T22:45:34.754Z,17.00
2018-05-23T22:48:02.263Z,17.00
2018-05-23T22:50:29.755Z,17.00
2018-05-23T22:52:57.998Z,16.90
2018-05-23T22:55:25.477Z,16.90
2018-05-23T22:57:52.960Z,16.80
2018-05-23T23:00:21.134Z,16.80
2018-05-23T23:02:48.622Z,16.80
2018-05-23T23:05:16.110Z,16.80
2018-05-23T23:07:43.691Z,16.70
2018-05-23T23:10:11.166Z,16.70
2018-05-23T23:12:39.408Z,16.70
2018-05-23T23:15:06.893Z,16.60
2018-05-23T23:17:35.185Z,16.60
2018-05-23T23:20:03.442Z,16.60
2018-05-23T23:22:38.653Z,16.50
2018-05-23T23:25:06.155Z,16.50
2018-05-23T23:27:34.429Z,16.40
2018-05-23T23:30:02.737Z,16.40
2018-05-23T23:32:30.157Z,16.40
2018-05-23T23:34:57.643Z,16.40
2018-05-23T23:37:25.898Z,16.50
2018-05-23T23:39:54.167Z,16.50
2018-05-23T23:42:22.414Z,16.30
2018-05-23T23:44:49.896Z,16.30
2018-05-23T23:47:17.378Z,16.30
2018-05-23T23:49:45.650Z,16.40
2018-05-23T23:52:13.918Z,16.30
2018-05-23T23:54:41.784Z,16.20
2018-05-23T23:57:09.249Z,16.30
2018-05-23T23:59:37.540Z,16.20
